createdAt,value
2023-03-06T00:01:00.105Z,0.80
2023-03-06T00:03:28.968Z,0.70
2023-03-06T00:05:58.757Z,0.90
2023-03-06T00:08:29.675Z,0.77
2023-03-06T00:10:58.915Z,0.70
2023-03-06T00:13:30.169Z,0.60
2023-03-06T00:16:00.439Z,0.80
2023-03-06T00:18:29.250Z,0.88
2023-03-06T00:20:57.991Z,0.70
2023-03-06T00:23:27.528Z,0.52
2023-03-06T00:25:57.558Z,0.65
2023-03-06T00:28:26.349Z,0.80
2023-03-06T00:30:54.971Z,0.70
2023-03-06T00:33:23.590Z,0.70
2023-03-06T00:35:52.382Z,0.90
2023-03-06T00:38:21.080Z,0.77
2023-03-06T00:40:51.350Z,0.57
2023-03-06T00:43:21.333Z,0.77
2023-03-06T00:45:50.151Z,0.65
2023-03-06T00:48:19.386Z,0.77
2023-03-06T00:50:47.974Z,0.70
2023-03-06T00:53:16.634Z,1.00
2023-03-06T00:55:46.405Z,0.68
2023-03-06T00:58:15.172Z,0.75
2023-03-06T01:00:45.263Z,0.70
2023-03-06T01:03:26.602Z,1.08
2023-03-06T01:05:55.342Z,0.75
2023-03-06T01:08:24.014Z,0.93
2023-03-06T01:10:52.679Z,0.90
2023-03-06T01:13:21.382Z,0.80
2023-03-06T01:15:51.507Z,0.75
2023-03-06T01:18:23.934Z,0.68
2023-03-06T01:20:52.476Z,0.63
2023-03-06T01:23:21.150Z,0.60
2023-03-06T01:25:49.764Z,0.73
2023-03-06T01:28:21.333Z,0.80
2023-03-06T01:30:51.292Z,0.73
2023-03-06T01:33:20.278Z,0.70
2023-03-06T01:35:49.000Z,0.82
2023-03-06T01:38:17.650Z,0.80
2023-03-06T01:40:46.397Z,1.10
2023-03-06T01:43:27.914Z,1.17
2023-03-06T01:46:14.989Z,0.88
2023-03-06T01:48:45.739Z,0.77
2023-03-06T01:51:14.474Z,0.60
2023-03-06T01:53:44.237Z,1.02
2023-03-06T01:56:14.805Z,0.70
2023-03-06T01:58:44.586Z,0.93
2023-03-06T02:01:13.699Z,1.02
2023-03-06T02:03:43.215Z,0.75
2023-03-06T02:06:13.286Z,0.90
2023-03-06T02:08:42.169Z,0.90
2023-03-06T02:11:13.659Z,0.82
2023-03-06T02:13:42.822Z,0.80
2023-03-06T02:16:12.067Z,0.77
2023-03-06T02:18:41.975Z,0.90
2023-03-06T02:21:11.564Z,0.70
2023-03-06T02:23:45.033Z,0.80
2023-03-06T02:26:15.703Z,0.75
2023-03-06T02:28:44.313Z,0.75
2023-03-06T02:31:21.975Z,1.10
2023-03-06T02:34:02.102Z,0.70
2023-03-06T02:36:31.233Z,0.90
2023-03-06T02:39:00.534Z,0.95
2023-03-06T02:41:30.610Z,0.95
2023-03-06T02:43:59.342Z,0.90
2023-03-06T02:46:27.986Z,0.80
2023-03-06T02:48:56.799Z,0.90
2023-03-06T02:51:25.458Z,0.70
2023-03-06T02:53:54.160Z,0.85
2023-03-06T02:56:23.515Z,1.00
2023-03-06T02:58:53.558Z,1.00
2023-03-06T03:01:23.049Z,0.90
2023-03-06T03:03:51.754Z,0.75
2023-03-06T03:06:22.987Z,0.90
2023-03-06T03:08:52.623Z,1.10
2023-03-06T03:11:21.280Z,0.90
2023-03-06T03:13:49.921Z,1.10
2023-03-06T03:16:25.260Z,0.88
2023-03-06T03:18:54.010Z,1.00
2023-03-06T03:21:24.528Z,0.70
2023-03-06T03:23:55.365Z,0.90
2023-03-06T03:26:24.577Z,0.77
2023-03-06T03:29:05.283Z,0.82
2023-03-06T03:31:35.765Z,1.00
2023-03-06T03:34:05.628Z,0.90
2023-03-06T03:36:37.551Z,1.05
2023-03-06T03:39:08.014Z,1.40
2023-03-06T03:41:37.659Z,1.00
2023-03-06T03:44:09.326Z,0.90
2023-03-06T03:46:39.812Z,0.82
2023-03-06T03:49:13.279Z,0.98
2023-03-06T03:51:42.209Z,0.82
2023-03-06T03:54:11.788Z,0.90
2023-03-06T03:56:45.115Z,0.90
2023-03-06T03:59:20.943Z,1.08
2023-03-06T04:02:17.445Z,0.90
2023-03-06T04:04:54.518Z,1.00
2023-03-06T04:07:23.298Z,0.85
2023-03-06T04:09:51.952Z,0.80
2023-03-06T04:12:21.181Z,0.90
2023-03-06T04:14:49.975Z,0.90
2023-03-06T04:17:20.885Z,0.90
2023-03-06T04:19:50.357Z,1.00
2023-03-06T04:22:19.847Z,0.90
2023-03-06T04:24:50.001Z,1.00
2023-03-06T04:27:19.854Z,0.90
2023-03-06T04:29:48.925Z,0.80
2023-03-06T04:32:19.141Z,0.98
2023-03-06T04:34:51.034Z,1.00
2023-03-06T04:37:21.542Z,1.15
2023-03-06T04:39:50.825Z,0.98
2023-03-06T04:42:19.655Z,1.20
2023-03-06T04:44:48.463Z,1.00
2023-03-06T04:47:19.110Z,0.80
2023-03-06T04:49:48.044Z,0.70
2023-03-06T04:52:18.050Z,0.80
2023-03-06T04:54:47.083Z,0.90
2023-03-06T04:57:16.107Z,0.90
2023-03-06T04:59:44.806Z,0.80
2023-03-06T05:02:13.503Z,0.80
2023-03-06T05:04:42.063Z,0.90
2023-03-06T05:07:10.758Z,0.80
2023-03-06T05:09:41.020Z,0.88
2023-03-06T05:12:09.966Z,0.98
2023-03-06T05:14:38.670Z,1.08
2023-03-06T05:17:07.402Z,1.05
2023-03-06T05:19:36.191Z,0.75
2023-03-06T05:22:05.015Z,0.90
2023-03-06T05:24:33.681Z,0.93
2023-03-06T05:27:03.756Z,0.70
2023-03-06T05:29:32.471Z,0.70
2023-03-06T05:32:01.174Z,0.77
2023-03-06T05:34:29.966Z,0.85
2023-03-06T05:36:59.213Z,1.13
2023-03-06T05:39:27.805Z,0.88
2023-03-06T05:41:56.528Z,1.10
2023-03-06T05:44:26.637Z,0.70
2023-03-06T05:46:55.266Z,0.80
2023-03-06T05:49:23.916Z,0.77
2023-03-06T05:51:52.599Z,1.00
2023-03-06T05:54:21.314Z,0.75
2023-03-06T05:56:51.130Z,0.88
2023-03-06T05:59:19.896Z,0.90
2023-03-06T06:01:49.896Z,0.80
2023-03-06T06:04:18.656Z,0.85
2023-03-06T06:06:47.368Z,0.90
2023-03-06T06:09:16.274Z,0.90
2023-03-06T06:11:44.898Z,0.88
2023-03-06T06:14:14.808Z,0.77
2023-03-06T06:16:43.537Z,0.98
2023-03-06T06:19:18.637Z,0.90
2023-03-06T06:21:48.427Z,1.10
2023-03-06T06:24:18.564Z,0.82
2023-03-06T06:26:47.281Z,0.85
2023-03-06T06:29:15.923Z,1.00
2023-03-06T06:31:44.585Z,0.80
2023-03-06T06:34:14.784Z,0.85
2023-03-06T06:36:43.585Z,0.82
2023-03-06T06:39:15.634Z,0.85
2023-03-06T06:42:02.374Z,1.13
2023-03-06T06:44:33.749Z,1.10
2023-03-06T06:47:22.340Z,0.90
2023-03-06T06:49:53.542Z,0.65
2023-03-06T06:52:22.650Z,0.90
2023-03-06T06:54:51.410Z,1.08
2023-03-06T06:57:20.525Z,1.08
2023-03-06T06:59:50.721Z,0.90
2023-03-06T07:02:20.952Z,0.90
2023-03-06T07:05:02.937Z,0.98
2023-03-06T07:07:33.495Z,1.10
2023-03-06T07:10:02.553Z,1.08
2023-03-06T07:12:32.883Z,0.90
2023-03-06T07:15:01.661Z,0.80
2023-03-06T07:17:30.511Z,0.90
2023-03-06T07:19:59.781Z,1.13
2023-03-06T07:22:31.952Z,0.80
2023-03-06T07:25:06.777Z,1.00
2023-03-06T07:27:35.563Z,0.80
2023-03-06T07:30:04.339Z,0.88
2023-03-06T07:32:33.118Z,0.82
2023-03-06T07:35:18.998Z,0.90
2023-03-06T07:37:48.274Z,0.80
2023-03-06T07:40:19.668Z,0.90
2023-03-06T07:42:48.346Z,0.90
2023-03-06T07:45:20.505Z,0.80
2023-03-06T07:47:51.392Z,0.88
2023-03-06T07:50:20.718Z,1.00
2023-03-06T07:52:49.314Z,0.80
2023-03-06T07:55:19.489Z,1.00
2023-03-06T07:57:48.362Z,0.80
2023-03-06T08:00:18.276Z,1.13
2023-03-06T08:02:46.859Z,0.90
2023-03-06T08:05:16.326Z,0.93
2023-03-06T08:07:45.286Z,0.75
2023-03-06T08:10:15.385Z,0.88
2023-03-06T08:12:45.410Z,1.35
2023-03-06T08:15:14.872Z,1.00
2023-03-06T08:17:43.488Z,0.93
2023-03-06T08:20:13.096Z,0.93
2023-03-06T08:22:42.079Z,0.90
2023-03-06T08:25:11.665Z,0.82
2023-03-06T08:27:40.400Z,0.98
2023-03-06T08:30:11.488Z,0.82
2023-03-06T08:32:40.267Z,0.80
2023-03-06T08:35:09.294Z,1.00
2023-03-06T08:37:37.896Z,1.00
2023-03-06T08:40:06.996Z,1.00
2023-03-06T08:42:35.629Z,1.02
2023-03-06T08:45:04.327Z,1.08
2023-03-06T08:47:36.290Z,0.75
2023-03-06T08:50:05.723Z,0.73
2023-03-06T08:52:34.406Z,1.08
2023-03-06T08:55:03.689Z,1.00
2023-03-06T08:57:32.517Z,0.98
2023-03-06T09:00:01.192Z,1.00
2023-03-06T09:02:29.817Z,0.93
2023-03-06T09:05:01.307Z,1.23
2023-03-06T09:07:30.022Z,0.90
2023-03-06T09:09:58.761Z,0.88
2023-03-06T09:12:29.269Z,0.77
2023-03-06T09:14:59.693Z,0.80
2023-03-06T09:17:29.938Z,0.80
2023-03-06T09:19:59.962Z,1.00
2023-03-06T09:22:28.737Z,0.90
2023-03-06T09:24:57.755Z,1.17
2023-03-06T09:27:28.190Z,0.95
2023-03-06T09:29:57.059Z,0.90
2023-03-06T09:32:26.082Z,1.10
2023-03-06T09:34:54.797Z,1.17
2023-03-06T09:37:24.969Z,0.88
2023-03-06T09:39:53.723Z,1.08
2023-03-06T09:42:23.821Z,0.70
2023-03-06T09:44:53.569Z,0.70
2023-03-06T09:47:46.633Z,0.80
2023-03-06T09:50:25.936Z,0.80
2023-03-06T09:53:01.808Z,0.70
2023-03-06T09:55:33.217Z,0.80
2023-03-06T09:58:07.167Z,1.15
2023-03-06T10:00:37.724Z,0.73
2023-03-06T10:03:14.239Z,1.10
2023-03-06T10:05:44.232Z,0.88
2023-03-06T10:08:21.497Z,0.90
2023-03-06T10:10:52.839Z,0.98
2023-03-06T10:13:22.765Z,1.30
2023-03-06T10:15:51.875Z,1.23
2023-03-06T10:18:20.559Z,0.93
2023-03-06T10:20:51.590Z,0.80
2023-03-06T10:23:33.422Z,0.80
2023-03-06T10:26:03.007Z,0.90
2023-03-06T10:28:35.446Z,0.70
2023-03-06T10:31:08.962Z,0.95
2023-03-06T10:33:44.633Z,0.80
2023-03-06T10:36:14.558Z,0.90
2023-03-06T10:38:45.641Z,0.88
2023-03-06T10:41:21.724Z,1.00
2023-03-06T10:44:05.270Z,0.88
2023-03-06T10:46:35.330Z,0.80
2023-03-06T10:49:04.923Z,1.10
2023-03-06T10:51:34.118Z,1.10
2023-03-06T10:54:04.833Z,1.00
2023-03-06T10:56:34.409Z,1.00
2023-03-06T10:59:10.778Z,1.00
2023-03-06T11:01:39.801Z,0.75
2023-03-06T11:04:18.944Z,0.73
2023-03-06T11:06:47.611Z,1.00
2023-03-06T11:09:18.782Z,1.00
2023-03-06T11:11:47.354Z,1.00
2023-03-06T11:14:17.203Z,0.90
2023-03-06T11:16:53.058Z,1.10
2023-03-06T11:19:25.762Z,0.85
2023-03-06T11:22:02.035Z,0.63
2023-03-06T11:24:37.523Z,0.80
2023-03-06T11:27:11.031Z,0.90
2023-03-06T11:29:42.464Z,0.95
2023-03-06T11:32:14.311Z,0.93
2023-03-06T11:34:48.131Z,0.93
2023-03-06T11:37:23.164Z,0.70
2023-03-06T11:39:56.864Z,0.80
2023-03-06T11:42:28.133Z,0.90
2023-03-06T11:45:03.196Z,0.60
2023-03-06T11:47:34.707Z,0.90
2023-03-06T11:50:14.696Z,1.10
2023-03-06T11:52:46.797Z,0.80
2023-03-06T11:55:18.505Z,1.13
2023-03-06T11:57:49.620Z,0.90
2023-03-06T12:00:22.760Z,1.30
2023-03-06T12:03:10.441Z,1.08
2023-03-06T12:05:41.048Z,0.82
2023-03-06T12:08:17.517Z,0.80
2023-03-06T12:10:51.887Z,0.90
2023-03-06T12:13:41.899Z,0.98
2023-03-06T12:16:30.828Z,0.90
2023-03-06T12:19:04.423Z,1.00
2023-03-06T12:21:35.776Z,0.88
2023-03-06T12:24:09.447Z,0.93
2023-03-06T12:26:44.505Z,1.08
2023-03-06T12:29:18.058Z,0.90
2023-03-06T12:31:53.158Z,1.00
2023-03-06T12:34:31.413Z,1.00
2023-03-06T12:37:04.242Z,0.70
2023-03-06T12:39:40.587Z,0.90
2023-03-06T12:42:30.432Z,1.00
2023-03-06T12:45:08.704Z,1.00
2023-03-06T12:47:41.655Z,0.90
2023-03-06T12:50:15.727Z,0.80
2023-03-06T12:52:44.816Z,0.90
2023-03-06T12:55:16.780Z,0.90
2023-03-06T12:57:48.212Z,1.05
2023-03-06T13:00:31.766Z,1.00
2023-03-06T13:03:06.317Z,1.10
2023-03-06T13:05:44.696Z,0.90
2023-03-06T13:08:25.379Z,0.98
2023-03-06T13:11:07.632Z,1.00
2023-03-06T13:13:43.796Z,1.00
2023-03-06T13:16:14.305Z,0.95
2023-03-06T13:18:51.797Z,0.75
2023-03-06T13:21:39.006Z,0.90
2023-03-06T13:24:07.802Z,0.70
2023-03-06T13:26:53.403Z,0.90
2023-03-06T13:29:40.963Z,0.98
2023-03-06T13:32:17.754Z,0.98
2023-03-06T13:34:48.551Z,0.82
2023-03-06T13:37:47.275Z,1.10
2023-03-06T13:40:16.835Z,1.00
2023-03-06T13:43:04.116Z,0.95
2023-03-06T13:45:35.497Z,1.00
2023-03-06T13:48:33.401Z,0.70
2023-03-06T13:50:55.669Z,0.90
2023-03-06T13:53:40.774Z,1.00
2023-03-06T13:56:16.591Z,0.98
2023-03-06T13:58:52.286Z,0.90
2023-03-06T14:01:35.723Z,1.00
2023-03-06T14:04:19.273Z,0.90
2023-03-06T14:06:53.846Z,0.85
2023-03-06T14:09:28.427Z,0.70
2023-03-06T14:11:59.545Z,1.00
2023-03-06T14:14:34.179Z,0.80
2023-03-06T14:17:05.117Z,0.80
2023-03-06T14:19:36.342Z,0.82
2023-03-06T14:22:07.622Z,0.90
2023-03-06T14:24:38.955Z,1.00
2023-03-06T14:27:09.208Z,0.80
2023-03-06T14:29:37.875Z,0.90
2023-03-06T14:32:12.201Z,0.95
2023-03-06T14:34:41.996Z,0.88
2023-03-06T14:37:21.366Z,1.00
2023-03-06T14:39:51.072Z,0.80
2023-03-06T14:42:21.783Z,0.80
2023-03-06T14:44:51.322Z,0.80
2023-03-06T14:47:29.408Z,0.50
2023-03-06T14:50:16.726Z,1.00
2023-03-06T14:52:46.976Z,0.80
2023-03-06T14:55:18.924Z,0.90
2023-03-06T14:57:48.829Z,0.88
2023-03-06T15:00:20.533Z,1.17
2023-03-06T15:02:50.531Z,0.70
2023-03-06T15:05:22.373Z,1.00
2023-03-06T15:07:53.070Z,1.05
2023-03-06T15:10:23.104Z,0.80
2023-03-06T15:12:51.792Z,0.77
2023-03-06T15:15:31.170Z,1.00
2023-03-06T15:18:00.487Z,1.17
2023-03-06T15:20:41.248Z,0.70
2023-03-06T15:23:21.724Z,1.10
2023-03-06T15:25:54.619Z,0.88
2023-03-06T15:28:27.824Z,0.90
2023-03-06T15:31:06.704Z,0.88
2023-03-06T15:33:35.433Z,0.90
2023-03-06T15:36:04.857Z,1.10
2023-03-06T15:38:39.415Z,0.77
2023-03-06T15:41:12.646Z,1.20
2023-03-06T15:43:41.826Z,0.82
2023-03-06T15:46:10.613Z,0.75
2023-03-06T15:48:39.354Z,0.95
2023-03-06T15:51:08.376Z,0.80
2023-03-06T15:53:38.500Z,0.80
2023-03-06T15:56:07.444Z,0.90
2023-03-06T15:58:36.426Z,0.88
2023-03-06T16:01:05.236Z,0.60
2023-03-06T16:03:33.916Z,0.70
2023-03-06T16:06:02.696Z,0.60
2023-03-06T16:08:31.436Z,0.70
2023-03-06T16:11:01.482Z,0.93
2023-03-06T16:13:30.711Z,0.55
2023-03-06T16:16:00.614Z,0.80
2023-03-06T16:18:31.541Z,1.10
2023-03-06T16:21:00.166Z,1.20
2023-03-06T16:23:28.727Z,0.80
2023-03-06T16:25:57.532Z,0.77
2023-03-06T16:28:27.858Z,0.60
2023-03-06T16:30:56.579Z,0.98
2023-03-06T16:33:25.724Z,0.73
2023-03-06T16:35:54.638Z,0.90
2023-03-06T16:38:23.319Z,1.17
2023-03-06T16:40:52.024Z,0.80
2023-03-06T16:43:20.887Z,1.13
2023-03-06T16:45:51.579Z,0.80
2023-03-06T16:48:20.294Z,0.70
2023-03-06T16:50:49.015Z,0.82
2023-03-06T16:53:17.684Z,0.80
2023-03-06T16:55:47.588Z,0.93
2023-03-06T16:58:16.282Z,0.82
2023-03-06T17:00:45.194Z,1.08
2023-03-06T17:03:16.844Z,0.98
2023-03-06T17:05:46.243Z,0.82
2023-03-06T17:08:15.125Z,1.00
2023-03-06T17:10:43.994Z,1.08
2023-03-06T17:13:13.227Z,1.02
2023-03-06T17:15:41.959Z,1.17
2023-03-06T17:18:11.133Z,1.00
2023-03-06T17:20:41.466Z,1.25
2023-03-06T17:23:10.268Z,0.98
2023-03-06T17:25:39.022Z,1.38
2023-03-06T17:28:07.662Z,1.27
2023-03-06T17:30:36.308Z,1.30
2023-03-06T17:33:05.097Z,1.48
2023-03-06T17:35:35.681Z,1.20
2023-03-06T17:38:06.438Z,1.80
2023-03-06T17:40:35.746Z,2.63
2023-03-06T17:43:04.786Z,3.95
2023-03-06T17:45:35.098Z,2.15
2023-03-06T17:48:03.735Z,1.90
2023-03-06T17:50:32.899Z,1.42
2023-03-06T17:53:01.655Z,1.63
2023-03-06T17:55:31.772Z,1.80
2023-03-06T17:58:00.458Z,1.60
2023-03-06T18:00:29.142Z,1.40
2023-03-06T18:02:57.812Z,1.65
2023-03-06T18:05:26.417Z,1.75
2023-03-06T18:07:55.137Z,1.80
2023-03-06T18:10:23.877Z,1.40
2023-03-06T18:12:54.274Z,1.33
2023-03-06T18:15:22.979Z,1.50
2023-03-06T18:17:51.670Z,2.13
2023-03-06T18:20:20.443Z,1.73
2023-03-06T18:22:49.064Z,1.85
2023-03-06T18:25:17.815Z,1.70
2023-03-06T18:27:46.818Z,1.83
2023-03-06T18:30:17.305Z,2.20
2023-03-06T18:32:46.011Z,1.45
2023-03-06T18:35:15.179Z,1.65
2023-03-06T18:37:43.741Z,1.50
2023-03-06T18:40:13.179Z,1.90
2023-03-06T18:42:41.954Z,1.90
2023-03-06T18:45:11.113Z,2.45
2023-03-06T18:47:41.301Z,1.67
2023-03-06T18:50:11.642Z,2.30
2023-03-06T18:52:40.574Z,1.42
2023-03-06T18:55:09.587Z,1.55
2023-03-06T18:57:38.272Z,1.30
2023-03-06T19:00:07.623Z,1.20
2023-03-06T19:02:36.303Z,1.13
2023-03-06T19:05:07.123Z,1.08
2023-03-06T19:07:35.740Z,1.10
2023-03-06T19:10:04.433Z,1.10
2023-03-06T19:12:35.541Z,1.05
2023-03-06T19:15:04.435Z,1.23
2023-03-06T19:17:33.172Z,0.98
2023-03-06T19:20:01.929Z,1.13
2023-03-06T19:22:32.257Z,1.08
2023-03-06T19:25:03.448Z,1.13
2023-03-06T19:27:32.696Z,1.42
2023-03-06T19:30:01.433Z,1.30
2023-03-06T19:32:30.481Z,1.30
2023-03-06T19:34:59.631Z,1.27
2023-03-06T19:37:28.406Z,1.10
2023-03-06T19:40:01.427Z,0.98
2023-03-06T19:42:30.158Z,1.17
2023-03-06T19:44:58.821Z,1.27
2023-03-06T19:47:27.698Z,1.08
2023-03-06T19:49:56.376Z,1.23
2023-03-06T19:52:25.452Z,1.40
2023-03-06T19:54:54.151Z,1.70
2023-03-06T19:57:24.114Z,1.75
2023-03-06T19:59:53.082Z,1.77
2023-03-06T20:02:26.606Z,1.85
2023-03-06T20:04:55.865Z,1.80
2023-03-06T20:07:24.936Z,1.48
2023-03-06T20:09:54.419Z,1.35
2023-03-06T20:12:24.519Z,1.83
2023-03-06T20:14:53.454Z,2.10
2023-03-06T20:17:22.022Z,1.83
2023-03-06T20:19:50.836Z,2.15
2023-03-06T20:22:20.236Z,3.00
2023-03-06T20:24:49.009Z,2.60
2023-03-06T20:27:17.663Z,2.47
2023-03-06T20:29:47.617Z,2.45
2023-03-06T20:32:16.497Z,2.42
2023-03-06T20:34:45.284Z,2.65
2023-03-06T20:37:14.348Z,2.70
2023-03-06T20:39:43.048Z,2.60
2023-03-06T20:42:11.762Z,2.50
2023-03-06T20:44:40.502Z,2.15
2023-03-06T20:47:10.586Z,1.95
2023-03-06T20:49:40.145Z,2.53
2023-03-06T20:52:08.897Z,2.17
2023-03-06T20:54:37.635Z,2.15
2023-03-06T20:57:06.294Z,2.55
2023-03-06T20:59:35.035Z,3.40
2023-03-06T21:02:04.095Z,2.78
2023-03-06T21:04:34.331Z,3.17
2023-03-06T21:07:03.036Z,3.25
2023-03-06T21:09:34.462Z,3.53
2023-03-06T21:12:03.054Z,3.40
2023-03-06T21:14:31.779Z,5.32
2023-03-06T21:17:01.302Z,4.47
2023-03-06T21:19:29.923Z,4.88
2023-03-06T21:22:00.165Z,6.40
2023-03-06T21:24:28.814Z,6.00
2023-03-06T21:26:57.383Z,5.30
2023-03-06T21:29:26.104Z,5.43
2023-03-06T21:31:55.050Z,5.00
2023-03-06T21:34:23.669Z,5.55
2023-03-06T21:36:52.308Z,5.15
2023-03-06T21:39:22.429Z,5.60
2023-03-06T21:41:51.234Z,4.28
2023-03-06T21:44:19.850Z,3.72
2023-03-06T21:46:48.445Z,3.63
2023-03-06T21:49:17.231Z,3.75
2023-03-06T21:51:46.184Z,4.22
2023-03-06T21:54:15.187Z,4.40
2023-03-06T21:56:45.317Z,4.70
2023-03-06T21:59:14.248Z,3.67
2023-03-06T22:01:43.873Z,3.53
2023-03-06T22:04:12.462Z,3.25
2023-03-06T22:06:41.331Z,4.00
2023-03-06T22:09:12.916Z,3.67
2023-03-06T22:11:42.782Z,3.67
2023-03-06T22:14:14.729Z,4.07
2023-03-06T22:16:43.856Z,4.10
2023-03-06T22:19:12.544Z,5.07
2023-03-06T22:21:41.198Z,5.93
2023-03-06T22:24:09.905Z,6.78
2023-03-06T22:26:38.536Z,7.20
2023-03-06T22:29:07.626Z,7.13
2023-03-06T22:31:40.159Z,7.13
2023-03-06T22:34:08.997Z,6.80
2023-03-06T22:36:37.635Z,6.90
2023-03-06T22:39:06.404Z,7.25
2023-03-06T22:41:35.127Z,6.43
2023-03-06T22:44:04.044Z,6.60
2023-03-06T22:46:33.506Z,6.50
2023-03-06T22:49:03.878Z,6.55
2023-03-06T22:51:32.802Z,6.53
2023-03-06T22:54:01.477Z,6.78
2023-03-06T22:56:30.271Z,6.25
2023-03-06T22:58:59.328Z,5.97
2023-03-06T23:01:28.938Z,6.68
2023-03-06T23:03:58.965Z,6.20
2023-03-06T23:06:30.280Z,6.32
2023-03-06T23:08:59.988Z,6.72
2023-03-06T23:11:29.243Z,7.00
2023-03-06T23:14:17.044Z,7.60
2023-03-06T23:17:04.885Z,7.53
2023-03-06T23:19:52.125Z,6.30
2023-03-06T23:22:41.073Z,7.35
2023-03-06T23:25:28.110Z,7.15
2023-03-06T23:27:56.810Z,8.43
2023-03-06T23:30:25.456Z,7.05
2023-03-06T23:32:54.134Z,7.38
2023-03-06T23:35:22.857Z,6.85
2023-03-06T23:37:52.971Z,7.47
2023-03-06T23:40:22.265Z,8.00
2023-03-06T23:42:50.914Z,7.05
2023-03-06T23:45:19.686Z,6.93
2023-03-06T23:47:48.361Z,6.90
2023-03-06T23:50:17.438Z,6.32
2023-03-06T23:52:46.160Z,7.38
2023-03-06T23:55:16.182Z,7.15
2023-03-06T23:57:44.855Z,6.82
